Time;durP1;ratioP1;P1;durP2;ratioP2;P2;SDS_P1;SDS_P2;PMS_P1;PMS_P2;Temp;Humidity;BMP_temperature;BMP_pressure;BME280_temperature;BME280_humidity;BME280_pressure;Samples;Min_cycle;Max_cycle;Signal;HPM_P1;HPM_P2
2022/08/29 00:00:34;;;;;;;5.80;2.17;;;16.30;1.00;;;;;;5073805;28;20271;-71
2022/08/29 00:03:00;;;;;;;2.30;2.10;;;16.30;1.00;;;;;;5075398;28;20168;-70
2022/08/29 00:05:31;;;;;;;3.40;2.20;;;16.20;1.00;;;;;;5075141;28;20180;-70
2022/08/29 00:07:58;;;;;;;3.33;2.47;;;16.20;1.00;;;;;;5073689;28;20252;-70
2022/08/29 00:10:25;;;;;;;3.90;2.37;;;16.20;1.00;;;;;;5074946;28;20231;-70
2022/08/29 00:12:50;;;;;;;3.60;2.27;;;16.20;1.00;;;;;;5074979;28;20180;-70
2022/08/29 00:15:16;;;;;;;4.30;2.50;;;16.10;1.00;;;;;;5075134;28;20184;-70
2022/08/29 00:17:42;;;;;;;3.90;2.23;;;16.00;1.00;;;;;;5074890;28;20308;-70
2022/08/29 00:20:11;;;;;;;3.57;2.30;;;16.00;1.00;;;;;;5075063;28;20164;-70
2022/08/29 00:22:36;;;;;;;2.50;2.20;;;16.00;1.00;;;;;;5074681;28;20175;-71
2022/08/29 00:25:04;;;;;;;3.77;2.50;;;15.90;1.00;;;;;;5074929;28;20176;-70
2022/08/29 00:27:34;;;;;;;5.47;2.70;;;15.90;1.00;;;;;;5074586;28;20301;-70
2022/08/29 00:29:59;;;;;;;5.33;2.43;;;15.90;1.00;;;;;;5074877;28;20177;-71
2022/08/29 00:32:27;;;;;;;5.87;2.70;;;15.90;1.00;;;;;;5074717;28;20166;-70
2022/08/29 00:34:52;;;;;;;5.40;2.90;;;15.80;1.00;;;;;;5074720;28;20184;-71
2022/08/29 00:37:18;;;;;;;3.53;2.50;;;15.80;1.00;;;;;;5073009;28;20644;-71
2022/08/29 00:39:44;;;;;;;4.73;3.00;;;15.80;1.00;;;;;;5074667;28;20236;-71
2022/08/29 00:42:09;;;;;;;2.77;2.30;;;15.80;1.00;;;;;;5074305;28;20180;-70
2022/08/29 00:44:35;;;;;;;6.13;2.80;;;15.80;1.00;;;;;;5074649;28;20187;-71
2022/08/29 00:47:07;;;;;;;3.07;2.17;;;15.80;1.00;;;;;;5073150;28;20223;-71
2022/08/29 00:49:47;;;;;;;3.43;2.43;;;15.70;1.00;;;;;;5074160;28;20179;-71
2022/08/29 00:52:17;;;;;;;3.83;2.87;;;15.70;1.00;;;;;;5073586;28;20632;-71
2022/08/29 00:54:49;;;;;;;2.67;2.47;;;15.60;1.00;;;;;;5073166;28;20172;-71
2022/08/29 00:57:18;;;;;;;3.20;2.50;;;15.70;1.00;;;;;;5074456;28;20176;-70
2022/08/29 00:59:44;;;;;;;2.97;2.73;;;15.70;1.00;;;;;;5074085;28;20208;-70
2022/08/29 01:02:10;;;;;;;3.67;2.83;;;15.60;1.00;;;;;;5074168;28;20260;-71
2022/08/29 01:04:38;;;;;;;5.67;3.07;;;15.60;1.00;;;;;;5074345;28;20212;-71
2022/08/29 01:07:04;;;;;;;4.40;2.70;;;15.60;1.00;;;;;;5073634;28;20176;-71
2022/08/29 01:09:31;;;;;;;7.30;2.70;;;15.60;1.00;;;;;;5072666;28;20224;-71
2022/08/29 01:12:15;;;;;;;6.43;2.90;;;15.60;1.00;;;;;;5073771;28;20179;-71
2022/08/29 01:14:49;;;;;;;3.53;2.80;;;15.50;1.00;;;;;;5073999;28;20180;-71
2022/08/29 01:17:24;;;;;;;3.10;2.70;;;15.50;1.00;;;;;;5073980;28;20200;-71
2022/08/29 01:20:19;;;;;;;3.87;2.77;;;15.40;1.00;;;;;;5073892;28;20200;-71
2022/08/29 01:22:51;;;;;;;5.50;3.20;;;15.40;1.00;;;;;;5073861;28;20161;-70
2022/08/29 01:25:21;;;;;;;3.37;2.90;;;15.40;1.00;;;;;;5073778;28;20161;-70
2022/08/29 01:28:04;;;;;;;4.80;3.10;;;15.50;1.00;;;;;;5073621;28;20167;-70
2022/08/29 01:30:30;;;;;;;5.67;3.17;;;15.40;1.00;;;;;;5073773;28;20196;-71
2022/08/29 01:32:56;;;;;;;4.10;3.00;;;15.40;1.00;;;;;;5073572;28;20627;-71
2022/08/29 01:35:24;;;;;;;4.27;2.80;;;15.40;1.00;;;;;;5073108;28;20171;-70
2022/08/29 01:37:50;;;;;;;3.23;2.93;;;15.30;1.00;;;;;;5073595;28;20210;-71
2022/08/29 01:40:15;;;;;;;3.40;3.17;;;15.20;1.00;;;;;;5073435;28;20655;-70
2022/08/29 01:42:41;;;;;;;4.27;3.20;;;15.20;1.00;;;;;;5073433;28;20169;-70
2022/08/29 01:45:08;;;;;;;3.57;3.10;;;15.20;1.00;;;;;;5073513;28;20531;-70
2022/08/29 01:47:34;;;;;;;5.40;3.23;;;15.20;1.00;;;;;;5073501;28;20165;-71
2022/08/29 01:50:01;;;;;;;4.33;3.00;;;15.20;1.00;;;;;;5073111;28;20161;-70
2022/08/29 01:52:27;;;;;;;5.57;3.27;;;15.10;1.00;;;;;;5073400;28;20236;-70
2022/08/29 01:54:53;;;;;;;3.43;3.03;;;15.10;1.00;;;;;;5073314;28;20175;-71
2022/08/29 01:57:19;;;;;;;4.03;3.63;;;15.10;1.00;;;;;;5073526;28;20636;-70
2022/08/29 01:59:45;;;;;;;6.23;3.30;;;15.10;1.00;;;;;;5073283;28;20361;-71
2022/08/29 02:02:16;;;;;;;3.50;3.13;;;15.00;1.00;;;;;;5072822;28;20179;-71
2022/08/29 02:04:42;;;;;;;6.43;3.73;;;15.00;1.00;;;;;;5072896;28;20273;-71
2022/08/29 02:07:08;;;;;;;5.43;3.70;;;14.90;1.00;;;;;;5072000;28;20173;-71
2022/08/29 02:09:34;;;;;;;7.33;3.93;;;15.00;1.00;;;;;;5072782;28;20225;-69
2022/08/29 02:12:06;;;;;;;3.73;3.43;;;14.90;1.00;;;;;;5073016;28;20165;-70
2022/08/29 02:14:33;;;;;;;6.07;4.47;;;14.90;1.00;;;;;;5071973;28;20176;-70
2022/08/29 02:17:00;;;;;;;5.17;4.13;;;14.90;1.00;;;;;;5072882;28;20187;-71
2022/08/29 02:19:26;;;;;;;6.37;4.30;;;14.90;1.00;;;;;;5072531;28;20200;-70
2022/08/29 02:21:51;;;;;;;5.33;3.90;;;14.90;1.00;;;;;;5071958;28;20179;-70
2022/08/29 02:24:17;;;;;;;4.23;3.80;;;14.90;1.00;;;;;;5072904;28;20685;-71
2022/08/29 02:26:43;;;;;;;5.93;4.03;;;14.90;1.00;;;;;;5073057;28;20173;-70
2022/08/29 02:29:11;;;;;;;5.50;4.67;;;14.80;1.00;;;;;;5072987;28;20168;-70
2022/08/29 02:31:37;;;;;;;9.87;4.23;;;14.80;1.00;;;;;;5072904;28;20180;-71
2022/08/29 02:34:03;;;;;;;5.07;3.93;;;14.80;1.00;;;;;;5071261;28;20177;-70
2022/08/29 02:36:29;;;;;;;5.50;4.17;;;14.80;1.00;;;;;;5072897;28;20172;-70
2022/08/29 02:38:55;;;;;;;5.23;4.10;;;14.70;2.20;;;;;;5072596;28;20753;-70
2022/08/29 02:41:21;;;;;;;5.13;4.63;;;14.60;6.00;;;;;;5072507;28;20165;-70
2022/08/29 02:43:47;;;;;;;6.17;4.53;;;14.60;8.90;;;;;;5072711;28;20196;-70
2022/08/29 02:46:15;;;;;;;8.37;4.50;;;14.60;12.70;;;;;;5072713;28;20244;-70
2022/08/29 02:48:42;;;;;;;6.03;3.90;;;14.50;15.00;;;;;;5072552;28;20161;-69
2022/08/29 02:51:08;;;;;;;6.33;4.57;;;14.50;16.70;;;;;;5072411;28;20161;-71
2022/08/29 02:53:34;;;;;;;4.87;4.37;;;14.60;17.40;;;;;;5072833;28;20659;-70
2022/08/29 02:56:00;;;;;;;5.77;4.43;;;14.60;15.00;;;;;;5070876;28;20179;-71
2022/08/29 02:58:26;;;;;;;7.27;4.20;;;14.60;17.80;;;;;;5072540;28;20208;-70
2022/08/29 03:00:52;;;;;;;6.80;4.77;;;14.50;18.80;;;;;;5072549;28;20169;-71
2022/08/29 03:03:18;;;;;;;10.70;5.07;;;14.60;20.10;;;;;;5072171;28;20176;-70
2022/08/29 03:05:44;;;;;;;6.50;4.43;;;14.50;21.20;;;;;;5072545;28;20171;-71
2022/08/29 03:08:15;;;;;;;10.20;4.50;;;14.50;22.60;;;;;;5072535;28;20191;-70
2022/08/29 03:10:41;;;;;;;5.77;4.40;;;14.50;23.00;;;;;;5072447;28;20234;-71
2022/08/29 03:13:08;;;;;;;4.80;4.30;;;14.50;23.90;;;;;;5072494;28;20180;-70
2022/08/29 03:15:34;;;;;;;6.40;4.50;;;14.40;26.40;;;;;;5075858;28;20226;-70
2022/08/29 03:18:00;;;;;;;7.47;4.30;;;14.40;28.90;;;;;;5075470;28;20197;-70
2022/08/29 03:20:26;;;;;;;6.03;4.20;;;14.40;30.40;;;;;;5075355;28;20176;-70
2022/08/29 03:22:53;;;;;;;4.57;4.03;;;14.40;29.70;;;;;;5074407;28;20221;-70
2022/08/29 03:25:20;;;;;;;8.23;4.33;;;14.40;31.50;;;;;;5075917;28;20585;-71
2022/08/29 03:27:46;;;;;;;7.03;4.23;;;14.40;33.90;;;;;;5075766;28;20180;-70
2022/08/29 03:30:13;;;;;;;6.73;4.83;;;14.40;36.30;;;;;;5075657;28;20173;-71
2022/08/29 03:32:39;;;;;;;7.53;4.40;;;14.30;36.70;;;;;;5075565;28;20169;-71
2022/08/29 03:35:07;;;;;;;8.87;4.67;;;14.30;38.60;;;;;;5075630;28;20588;-70
2022/08/29 03:37:32;;;;;;;6.00;4.43;;;14.30;39.70;;;;;;5075815;28;20651;-71
2022/08/29 03:39:58;;;;;;;7.03;4.43;;;14.30;38.90;;;;;;5074881;28;20208;-70
2022/08/29 03:42:24;;;;;;;7.07;5.10;;;14.40;40.60;;;;;;5075357;28;20180;-71
2022/08/29 03:44:50;;;;;;;6.30;4.40;;;14.30;40.50;;;;;;5075620;28;20173;-70
2022/08/29 03:47:15;;;;;;;7.87;4.83;;;14.30;38.80;;;;;;5074645;28;20196;-70
2022/08/29 03:49:41;;;;;;;9.83;4.47;;;14.30;40.10;;;;;;5075435;28;20172;-70
2022/08/29 03:52:08;;;;;;;7.97;5.10;;;14.30;41.30;;;;;;5074888;28;20191;-70
2022/08/29 03:54:35;;;;;;;5.53;4.40;;;14.30;42.20;;;;;;5073391;28;20168;-70
2022/08/29 03:57:02;;;;;;;8.87;4.70;;;14.30;42.80;;;;;;5075218;28;20165;-70
2022/08/29 03:59:28;;;;;;;6.07;5.20;;;14.30;43.40;;;;;;5074978;28;20216;-71
2022/08/29 04:01:54;;;;;;;9.27;4.87;;;14.30;41.70;;;;;;5074885;28;20259;-71
2022/08/29 04:07:05;;;;;;;9.30;5.07;;;14.30;42.80;;;;;;5075386;28;20227;-70
2022/08/29 04:09:31;;;;;;;9.27;4.90;;;14.30;44.60;;;;;;5074690;28;20224;-70
2022/08/29 04:11:57;;;;;;;13.37;5.50;;;14.30;44.40;;;;;;5072954;28;20192;-71
2022/08/29 04:14:23;;;;;;;9.80;4.50;;;14.30;40.10;;;;;;5074169;28;20169;-70
2022/08/29 04:16:49;;;;;;;11.20;5.30;;;14.30;41.50;;;;;;5074487;28;20884;-70
2022/08/29 04:19:16;;;;;;;16.53;5.37;;;14.30;42.70;;;;;;5074605;28;20212;-70
2022/08/29 04:21:41;;;;;;;10.13;5.10;;;14.50;34.20;;;;;;5074372;28;20608;-70
2022/08/29 04:24:07;;;;;;;15.93;4.53;;;14.30;35.90;;;;;;5074412;28;20248;-71
2022/08/29 04:26:33;;;;;;;7.77;4.17;;;14.30;41.50;;;;;;5074052;28;20180;-69
2022/08/29 04:28:59;;;;;;;14.07;4.80;;;14.20;46.10;;;;;;5074292;28;20212;-70
2022/08/29 04:31:25;;;;;;;14.90;4.53;;;14.20;46.10;;;;;;5074163;28;20230;-70
2022/08/29 04:33:51;;;;;;;13.13;4.77;;;14.20;48.90;;;;;;5073366;28;20184;-70
2022/08/29 04:36:16;;;;;;;13.40;4.93;;;14.10;51.80;;;;;;5073942;28;20175;-70
2022/08/29 04:38:42;;;;;;;12.60;5.03;;;14.10;55.50;;;;;;5074273;28;20566;-70
2022/08/29 04:41:13;;;;;;;21.07;5.30;;;14.10;56.50;;;;;;5073661;28;20226;-69
2022/08/29 04:43:44;;;;;;;11.47;5.10;;;14.10;52.70;;;;;;5072456;28;20187;-69
2022/08/29 04:46:12;;;;;;;16.57;5.17;;;14.10;55.70;;;;;;5073929;28;20647;-70
2022/08/29 04:48:38;;;;;;;13.90;5.53;;;14.10;59.60;;;;;;5074011;28;20169;-70
2022/08/29 04:51:04;;;;;;;18.13;4.77;;;14.10;58.10;;;;;;5073410;28;20503;-70
2022/08/29 04:53:29;;;;;;;14.47;5.87;;;14.10;61.30;;;;;;5072101;28;20677;-71
2022/08/29 04:56:05;;;;;;;9.07;5.20;;;14.10;59.70;;;;;;5072083;28;20176;-70
2022/08/29 04:58:36;;;;;;;15.90;5.13;;;14.10;57.50;;;;;;5073035;28;20228;-70
2022/08/29 05:01:03;;;;;;;10.07;4.97;;;14.10;56.10;;;;;;5073806;28;20180;-70
2022/08/29 05:03:29;;;;;;;6.30;4.47;;;14.10;58.50;;;;;;5073064;28;20169;-71
2022/08/29 05:05:56;;;;;;;9.80;4.50;;;14.10;58.10;;;;;;5073408;28;20196;-71
2022/08/29 05:08:22;;;;;;;8.10;4.27;;;14.10;55.40;;;;;;5071842;28;20176;-70
2022/08/29 05:10:47;;;;;;;6.93;4.43;;;14.10;55.70;;;;;;5072640;28;20322;-70
2022/08/29 05:13:13;;;;;;;10.97;4.33;;;14.10;54.40;;;;;;5072738;28;20288;-71
2022/08/29 05:15:39;;;;;;;9.30;4.10;;;14.20;50.50;;;;;;5073205;28;20214;-71
2022/08/29 05:18:05;;;;;;;7.27;4.10;;;14.20;50.90;;;;;;5073052;28;20202;-71
2022/08/29 05:20:31;;;;;;;6.83;4.17;;;14.20;46.70;;;;;;5071267;28;20669;-71
2022/08/29 05:22:57;;;;;;;7.37;4.57;;;14.30;47.70;;;;;;5073055;28;20648;-71
2022/08/29 05:25:22;;;;;;;12.60;4.73;;;14.30;41.60;;;;;;5073099;28;20178;-71
2022/08/29 05:27:48;;;;;;;6.47;4.17;;;14.30;41.20;;;;;;5072049;28;20753;-70
2022/08/29 05:30:16;;;;;;;7.57;4.33;;;14.40;35.10;;;;;;5072845;28;20169;-71
2022/08/29 05:32:41;;;;;;;9.90;4.73;;;14.40;36.60;;;;;;5071175;28;20348;-71
2022/08/29 05:35:07;;;;;;;12.13;4.70;;;14.50;29.40;;;;;;5071315;28;20200;-71
2022/08/29 05:37:33;;;;;;;15.33;5.13;;;14.50;29.20;;;;;;5071448;28;20249;-70
2022/08/29 05:39:59;;;;;;;8.10;4.40;;;14.50;24.60;;;;;;5072730;28;20211;-71
2022/08/29 05:42:26;;;;;;;15.47;4.70;;;14.50;25.10;;;;;;5071825;28;20220;-71
2022/08/29 05:44:52;;;;;;;11.87;5.30;;;14.60;25.10;;;;;;5072235;28;20260;-71
2022/08/29 05:47:19;;;;;;;15.80;5.20;;;14.80;17.20;;;;;;5071831;28;20248;-70
2022/08/29 05:49:45;;;;;;;13.93;5.07;;;14.90;10.60;;;;;;5071974;28;20223;-70
2022/08/29 05:52:13;;;;;;;10.70;4.40;;;14.80;8.70;;;;;;5070226;28;20178;-69
2022/08/29 05:54:40;;;;;;;12.13;5.07;;;14.90;3.70;;;;;;5071957;28;20179;-70
2022/08/29 05:57:08;;;;;;;16.67;5.43;;;15.00;1.00;;;;;;5072068;28;20172;-70
2022/08/29 05:59:34;;;;;;;7.37;4.83;;;15.20;1.70;;;;;;5071691;28;20274;-71
2022/08/29 06:02:00;;;;;;;8.03;4.40;;;15.40;1.00;;;;;;5072127;28;20179;-71
2022/08/29 06:04:26;;;;;;;19.03;4.97;;;15.50;1.00;;;;;;5072172;28;20584;-71
2022/08/29 06:06:51;;;;;;;19.50;5.23;;;15.50;1.00;;;;;;5071798;28;20168;-71
2022/08/29 06:09:17;;;;;;;10.27;5.07;;;15.60;1.00;;;;;;5072092;28;20247;-71
2022/08/29 06:11:47;;;;;;;11.73;4.60;;;15.60;1.00;;;;;;5071553;28;20164;-70
2022/08/29 06:14:13;;;;;;;21.77;5.57;;;15.60;1.00;;;;;;5071490;28;20185;-70
2022/08/29 06:16:39;;;;;;;12.80;5.07;;;15.70;1.00;;;;;;5072193;28;20176;-70
2022/08/29 06:19:05;;;;;;;14.87;4.80;;;16.10;1.00;;;;;;5071592;28;20211;-72
2022/08/29 06:21:30;;;;;;;19.33;6.10;;;16.60;1.00;;;;;;5070841;28;20161;-72
2022/08/29 06:23:56;;;;;;;11.87;4.90;;;17.30;1.00;;;;;;5071647;28;20194;-72
2022/08/29 06:26:22;;;;;;;11.07;5.23;;;17.50;91.40;;;;;;5070922;28;20165;-71
2022/08/29 06:28:48;;;;;;;17.20;5.07;;;17.30;99.90;;;;;;5071353;28;20179;-71
2022/08/29 06:31:20;;;;;;;10.30;4.60;;;17.40;99.90;;;;;;5070127;28;20164;-71
2022/08/29 06:33:46;;;;;;;14.87;5.30;;;17.90;99.90;;;;;;5071744;28;20172;-70
2022/08/29 06:36:12;;;;;;;12.83;5.07;;;18.00;30.60;;;;;;5071639;28;20168;-71
2022/08/29 06:38:38;;;;;;;12.57;4.83;;;17.90;99.90;;;;;;5069965;28;20219;-71
2022/08/29 06:41:10;;;;;;;11.27;4.70;;;17.70;1.00;;;;;;5070452;28;20347;-70
2022/08/29 06:43:36;;;;;;;10.00;4.93;;;17.40;99.90;;;;;;5071108;28;20173;-72
2022/08/29 06:46:02;;;;;;;9.23;5.17;;;17.30;99.90;;;;;;5070496;28;20173;-70
2022/08/29 06:48:28;;;;;;;12.07;5.47;;;17.40;1.00;;;;;;5073018;28;20683;-71
2022/08/29 06:50:54;;;;;;;9.40;5.03;;;17.50;99.90;;;;;;5074925;28;20215;-72
2022/08/29 06:53:20;;;;;;;10.40;5.60;;;17.20;1.00;;;;;;5075169;28;20165;-71
2022/08/29 06:55:46;;;;;;;12.70;5.30;;;16.90;1.00;;;;;;5075144;28;20279;-71
2022/08/29 06:58:12;;;;;;;8.40;5.53;;;16.90;1.00;;;;;;5075500;28;20200;-71
2022/08/29 07:00:42;;;;;;;13.03;5.57;;;17.20;1.00;;;;;;5075548;28;20211;-71
2022/08/29 07:03:08;;;;;;;14.27;5.47;;;17.20;99.90;;;;;;5075619;28;20278;-70
2022/08/29 07:05:33;;;;;;;10.97;5.57;;;17.00;1.00;;;;;;5075293;28;20267;-71
2022/08/29 07:07:59;;;;;;;12.87;5.70;;;17.00;1.00;;;;;;5075107;28;20271;-71
2022/08/29 07:10:25;;;;;;;12.17;5.47;;;17.20;1.00;;;;;;5073907;28;20722;-71
2022/08/29 07:12:51;;;;;;;16.83;5.43;;;17.10;1.00;;;;;;5074923;28;20171;-72
2022/08/29 07:15:18;;;;;;;16.50;5.50;;;17.30;99.90;;;;;;5074835;28;20173;-71
2022/08/29 07:17:44;;;;;;;15.90;5.80;;;17.30;1.00;;;;;;5074737;28;20199;-71
2022/08/29 07:20:10;;;;;;;10.97;4.60;;;17.80;99.90;;;;;;5074769;28;20335;-72
2022/08/29 07:22:36;;;;;;;14.90;4.75;;;18.80;38.10;;;;;;5074575;28;20168;-72
2022/08/29 07:25:01;;;;;;;15.30;5.50;;;19.50;1.00;;;;;;5074533;28;20214;-74
2022/08/29 07:27:28;;;;;;;7.50;4.72;;;20.70;99.90;;;;;;5075376;28;20173;-75
2022/08/29 07:29:54;;;;;;;9.32;4.63;;;22.10;99.90;;;;;;5075117;28;20659;-73
2022/08/29 07:32:19;;;;;;;8.68;4.40;;;21.80;1.00;;;;;;5075110;28;20176;-74
2022/08/29 07:34:45;;;;;;;7.90;4.35;;;20.80;26.10;;;;;;5075193;28;20169;-71
2022/08/29 07:37:11;;;;;;;9.82;4.72;;;19.80;1.00;;;;;;5074911;28;20164;-72
2022/08/29 07:39:37;;;;;;;8.57;4.38;;;19.60;99.90;;;;;;5074742;28;20261;-72
2022/08/29 07:42:03;;;;;;;12.10;4.40;;;19.20;99.90;;;;;;5074959;28;20176;-71
2022/08/29 07:44:31;;;;;;;14.70;4.75;;;18.80;99.90;;;;;;5075201;28;20164;-72
2022/08/29 07:46:58;;;;;;;12.70;4.68;;;19.00;1.00;;;;;;5074226;28;20607;-72
2022/08/29 07:49:25;;;;;;;7.88;4.13;;;19.20;1.00;;;;;;5074273;28;20184;-74
2022/08/29 07:51:51;;;;;;;7.57;3.65;;;19.90;99.90;;;;;;5074056;28;20171;-74
2022/08/29 07:54:18;;;;;;;9.55;4.10;;;20.20;1.00;;;;;;5073778;28;20172;-74
2022/08/29 07:56:45;;;;;;;7.60;3.72;;;20.00;1.00;;;;;;5074824;28;20187;-74
2022/08/29 07:59:12;;;;;;;8.30;3.78;;;19.90;1.00;;;;;;5072306;28;20211;-74
2022/08/29 08:01:39;;;;;;;10.02;3.20;;;20.30;1.00;;;;;;5073829;28;20173;-75
2022/08/29 08:04:05;;;;;;;8.20;3.92;;;20.70;99.90;;;;;;5074765;28;20196;-75
2022/08/29 08:06:33;;;;;;;7.90;3.85;;;20.90;99.90;;;;;;5073968;28;20165;-75
2022/08/29 08:08:58;;;;;;;6.60;3.15;;;20.90;99.90;;;;;;5072812;28;20606;-75
2022/08/29 08:11:25;;;;;;;4.80;2.92;;;20.90;99.90;;;;;;5074020;28;20177;-74
2022/08/29 08:13:55;;;;;;;4.75;3.15;;;21.00;99.90;;;;;;5074532;28;20160;-74
2022/08/29 08:16:23;;;;;;;10.13;3.50;;;20.20;99.90;;;;;;5074141;28;20258;-74
2022/08/29 08:18:49;;;;;;;7.80;3.47;;;20.20;1.00;;;;;;5073553;28;20208;-75
2022/08/29 08:21:15;;;;;;;7.28;3.13;;;20.90;99.90;;;;;;5073693;28;20529;-74
2022/08/29 08:23:42;;;;;;;7.88;3.10;;;20.80;99.90;;;;;;5073035;28;20204;-75
2022/08/29 08:26:09;;;;;;;5.38;2.58;;;21.20;99.90;;;;;;5074171;28;20168;-74
2022/08/29 08:28:35;;;;;;;4.93;2.40;;;21.40;1.00;;;;;;5073814;28;20168;-75
2022/08/29 08:31:04;;;;;;;5.13;2.70;;;21.20;1.00;;;;;;5074262;28;20172;-75
2022/08/29 08:33:29;;;;;;;6.82;2.60;;;21.20;10.00;;;;;;5072149;28;20175;-76
2022/08/29 08:35:56;;;;;;;4.28;2.25;;;21.50;1.00;;;;;;5073894;28;20173;-76
2022/08/29 08:38:22;;;;;;;4.45;2.55;;;21.90;1.00;;;;;;5073449;28;20264;-76
2022/08/29 08:41:11;;;;;;;6.53;2.90;;;21.80;1.00;;;;;;5073058;28;20250;-76
2022/08/29 08:43:47;;;;;;;6.72;2.30;;;22.00;1.00;;;;;;5073578;28;20177;-76
2022/08/29 08:46:14;;;;;;;12.80;2.75;;;23.00;1.00;;;;;;5074099;28;20174;-76
2022/08/29 08:48:40;;;;;;;7.90;3.17;;;23.50;99.90;;;;;;5073137;28;20199;-77
2022/08/29 08:51:13;;;;;;;6.07;2.63;;;23.80;99.90;;;;;;5073521;28;20232;-77
2022/08/29 08:53:47;;;;;;;4.07;2.60;;;23.90;99.90;;;;;;5072877;28;20207;-77
2022/08/29 08:56:21;;;;;;;5.18;2.83;;;24.30;99.90;;;;;;5073327;28;20271;-77
2022/08/29 08:58:51;;;;;;;6.95;2.30;;;23.30;99.90;;;;;;5073830;28;20566;-77
2022/08/29 09:01:26;;;;;;;4.93;2.80;;;21.60;99.90;;;;;;5073352;28;20205;-76
2022/08/29 09:04:16;;;;;;;5.97;3.10;;;20.80;99.90;;;;;;5073543;28;20195;-76
2022/08/29 09:06:47;;;;;;;3.67;2.90;;;22.30;99.90;;;;;;5073269;28;20279;-77
2022/08/29 09:09:31;;;;;;;5.40;3.00;;;23.00;99.90;;;;;;5072234;28;20270;-76
2022/08/29 09:12:23;;;;;;;3.72;2.90;;;22.90;99.90;;;;;;5072442;28;20172;-77
2022/08/29 09:15:01;;;;;;;8.55;3.28;;;23.20;99.90;;;;;;5072966;28;20192;-77
2022/08/29 09:17:40;;;;;;;5.10;2.85;;;23.80;99.90;;;;;;5072551;28;20184;-77
2022/08/29 09:20:12;;;;;;;6.97;2.80;;;24.50;99.90;;;;;;5072821;28;20208;-75
2022/08/29 09:22:41;;;;;;;5.38;2.80;;;24.30;99.90;;;;;;5072681;28;20629;-78
2022/08/29 09:25:09;;;;;;;8.38;3.30;;;23.60;99.90;;;;;;5072677;28;20177;-79
2022/08/29 09:27:36;;;;;;;7.45;3.08;;;24.20;99.90;;;;;;5073215;28;20697;-77
2022/08/29 09:30:16;;;;;;;5.88;3.10;;;24.40;99.90;;;;;;5072819;28;20176;-77
2022/08/29 09:32:56;;;;;;;5.88;3.17;;;23.80;99.90;;;;;;5070059;28;20528;-75
2022/08/29 09:35:36;;;;;;;5.10;3.00;;;23.30;99.90;;;;;;5085810;28;20264;-77
2022/08/29 09:38:16;;;;;;;5.35;3.05;;;24.00;99.90;;;;;;5085377;28;20176;-75
2022/08/29 09:40:58;;;;;;;5.07;3.13;;;24.60;99.90;;;;;;5088529;28;20191;-75
2022/08/29 09:43:39;;;;;;;5.45;3.25;;;24.10;99.90;;;;;;5072539;28;20251;-75
2022/08/29 09:46:15;;;;;;;4.10;3.08;;;24.30;99.90;;;;;;5072539;28;20164;-77
2022/08/29 09:48:57;;;;;;;4.03;3.13;;;24.70;99.90;;;;;;5093461;28;20167;-76
2022/08/29 09:51:27;;;;;;;5.10;3.08;;;24.80;99.90;;;;;;5112855;28;20187;-75
2022/08/29 09:54:13;;;;;;;5.78;3.22;;;24.60;99.90;;;;;;5112592;28;20250;-75
2022/08/29 09:56:48;;;;;;;6.03;3.00;;;25.00;99.90;;;;;;5102497;27;20193;-76
2022/08/29 09:59:26;;;;;;;3.65;3.00;;;25.80;99.90;;;;;;5112988;28;20191;-74
2022/08/29 10:02:14;;;;;;;7.70;3.58;;;26.00;99.90;;;;;;5113245;28;20167;-75
2022/08/29 10:04:42;;;;;;;4.45;3.20;;;26.00;99.90;;;;;;5112246;28;20179;-73
2022/08/29 10:07:19;;;;;;;3.75;3.20;;;26.20;99.90;;;;;;5112386;28;20171;-75
2022/08/29 10:09:59;;;;;;;6.30;3.10;;;26.30;99.90;;;;;;5111300;28;20254;-75
2022/08/29 10:12:57;;;;;;;5.03;3.22;;;25.60;99.90;;;;;;5112146;28;20165;-75
2022/08/29 10:15:32;;;;;;;3.47;3.17;;;25.90;99.90;;;;;;5104499;28;20181;-72
2022/08/29 10:18:22;;;;;;;4.30;3.17;;;25.70;99.90;;;;;;5111968;28;20190;-73
2022/08/29 10:21:11;;;;;;;4.10;2.90;;;25.30;99.90;;;;;;5099917;28;20694;-74
2022/08/29 10:23:43;;;;;;;5.70;3.05;;;24.60;99.90;;;;;;5096265;28;20168;-76
2022/08/29 10:26:33;;;;;;;4.32;2.78;;;25.50;99.90;;;;;;5097473;28;20167;-75
2022/08/29 10:29:14;;;;;;;5.10;3.10;;;25.70;99.90;;;;;;5099182;28;20167;-76
2022/08/29 10:32:03;;;;;;;6.90;3.65;;;24.80;99.90;;;;;;5096881;28;20668;-78
2022/08/29 10:34:41;;;;;;;4.50;3.13;;;25.00;99.90;;;;;;5098352;28;20674;-72
2022/08/29 10:37:19;;;;;;;4.45;3.17;;;25.70;99.90;;;;;;5099330;28;20189;-77
2022/08/29 10:40:07;;;;;;;4.38;3.30;;;25.70;99.90;;;;;;5098902;28;20198;-75
2022/08/29 10:42:37;;;;;;;4.53;3.33;;;26.40;99.90;;;;;;5098578;28;20176;-75
2022/08/29 10:45:14;;;;;;;4.05;2.85;;;26.90;99.90;;;;;;5099050;28;20673;-76
2022/08/29 10:47:57;;;;;;;5.13;3.03;;;26.20;99.90;;;;;;5098555;28;20748;-76
2022/08/29 10:51:02;;;;;;;5.45;3.35;;;26.50;99.90;;;;;;5098257;28;20168;-76
2022/08/29 10:53:37;;;;;;;6.95;3.50;;;27.20;99.90;;;;;;5051366;28;20679;-77
2022/08/29 10:56:26;;;;;;;3.35;3.05;;;28.40;99.90;;;;;;5056221;28;20184;-75
2022/08/29 10:59:27;;;;;;;4.95;3.58;;;27.70;99.90;;;;;;5040095;28;20559;-76
2022/08/29 11:02:09;;;;;;;5.97;3.10;;;25.90;99.90;;;;;;5055530;28;20176;-77
2022/08/29 11:04:47;;;;;;;6.05;3.25;;;26.30;99.90;;;;;;5055448;28;20173;-76
2022/08/29 11:07:18;;;;;;;8.07;3.75;;;26.40;99.90;;;;;;5055360;28;20578;-77
2022/08/29 11:09:52;;;;;;;4.60;3.53;;;25.10;99.90;;;;;;5054737;28;20213;-76
2022/08/29 11:12:54;;;;;;;5.95;3.60;;;23.90;99.90;;;;;;5054462;28;20652;-77
2022/08/29 11:15:59;;;;;;;7.60;3.25;;;23.60;99.90;;;;;;5055988;28;20266;-77
2022/08/29 11:18:37;;;;;;;3.88;3.03;;;25.10;99.90;;;;;;4976492;28;20215;-78
2022/08/29 11:21:28;;;;;;;4.63;3.40;;;24.70;99.90;;;;;;4976992;28;20222;-77
2022/08/29 11:23:56;;;;;;;4.90;3.28;;;24.80;99.90;;;;;;4975884;28;20725;-77
2022/08/29 11:26:40;;;;;;;5.65;3.13;;;25.20;99.90;;;;;;4977238;28;20255;-76
2022/08/29 11:29:16;;;;;;;4.50;2.58;;;25.10;99.90;;;;;;4997287;28;20193;-76
2022/08/29 11:32:11;;;;;;;5.18;2.80;;;24.70;99.90;;;;;;5015824;28;20309;-80
2022/08/29 11:35:01;;;;;;;5.25;3.20;;;25.20;99.90;;;;;;5013373;28;20281;-76
2022/08/29 11:37:30;;;;;;;4.75;3.22;;;24.70;99.90;;;;;;5012941;28;20198;-73
2022/08/29 11:40:08;;;;;;;5.47;3.33;;;25.40;99.90;;;;;;4996614;28;20332;-73
2022/08/29 11:42:39;;;;;;;5.18;2.90;;;26.10;99.90;;;;;;5011290;28;20166;-75
2022/08/29 11:45:09;;;;;;;3.35;3.00;;;26.30;99.90;;;;;;4996545;28;20224;-75
2022/08/29 11:47:46;;;;;;;3.10;2.80;;;26.50;99.90;;;;;;5012680;28;20175;-75
2022/08/29 11:50:15;;;;;;;5.43;3.70;;;26.20;99.60;;;;;;5013274;28;20701;-79
2022/08/29 11:53:11;;;;;;;5.47;3.17;;;25.70;99.90;;;;;;5012295;28;20569;-78
2022/08/29 11:55:38;;;;;;;3.47;2.95;;;26.20;99.70;;;;;;5072423;28;20231;-81
2022/08/29 11:58:15;;;;;;;5.53;2.75;;;25.20;99.90;;;;;;5094265;28;20266;-77
2022/08/29 12:00:45;;;;;;;4.75;2.88;;;24.50;99.90;;;;;;5092823;28;20283;-78
2022/08/29 12:03:32;;;;;;;5.10;2.90;;;24.40;99.90;;;;;;5094306;28;20160;-80
2022/08/29 12:06:23;;;;;;;4.25;2.78;;;24.10;99.90;;;;;;5094680;28;20164;-76
2022/08/29 12:08:58;;;;;;;6.05;3.17;;;24.10;99.90;;;;;;5094507;28;20200;-78
2022/08/29 12:11:58;;;;;;;7.00;3.10;;;24.40;99.90;;;;;;5092755;28;20176;-79
2022/08/29 12:14:40;;;;;;;7.53;3.80;;;24.80;99.90;;;;;;5094430;28;20199;-77
2022/08/29 12:17:26;;;;;;;6.53;3.13;;;25.20;99.90;;;;;;5094026;28;20236;-78
2022/08/29 12:19:58;;;;;;;4.57;3.20;;;25.10;99.90;;;;;;5083300;28;20220;-74
2022/08/29 12:22:44;;;;;;;5.35;3.10;;;24.70;99.90;;;;;;5093729;28;20243;-77
2022/08/29 12:25:47;;;;;;;4.80;2.78;;;25.00;99.90;;;;;;5093951;28;20198;-75
2022/08/29 12:28:26;;;;;;;4.22;3.00;;;24.30;99.90;;;;;;5091236;28;20557;-77
2022/08/29 12:30:58;;;;;;;6.18;3.30;;;24.20;99.90;;;;;;5092758;28;20210;-77
2022/08/29 12:33:58;;;;;;;3.15;2.85;;;24.10;99.90;;;;;;5092744;28;20203;-76
2022/08/29 12:36:48;;;;;;;3.33;3.03;;;23.60;99.90;;;;;;5092617;28;20301;-74
2022/08/29 12:39:43;;;;;;;5.70;3.35;;;23.30;99.90;;;;;;5092540;28;20214;-72
2022/08/29 12:42:28;;;;;;;4.70;3.20;;;23.30;99.90;;;;;;5093410;28;20214;-74
2022/08/29 12:45:09;;;;;;;5.55;3.60;;;23.50;99.90;;;;;;5092940;28;20265;-73
2022/08/29 12:47:43;;;;;;;5.80;3.83;;;23.80;99.90;;;;;;5091464;28;20176;-72
2022/08/29 12:50:17;;;;;;;6.70;2.95;;;23.70;99.90;;;;;;5093328;28;20183;-75
2022/08/29 12:52:43;;;;;;;7.03;3.20;;;23.80;99.90;;;;;;5093588;28;20246;-77
2022/08/29 12:55:22;;;;;;;5.80;3.58;;;23.10;99.90;;;;;;5093980;28;20213;-75
2022/08/29 12:57:48;;;;;;;6.18;3.67;;;23.20;99.90;;;;;;5106673;28;20178;-72
2022/08/29 13:00:26;;;;;;;7.72;5.45;;;23.00;99.90;;;;;;5112650;28;20214;-71
2022/08/29 13:03:05;;;;;;;4.35;3.05;;;23.00;99.90;;;;;;5113936;28;20213;-71
2022/08/29 13:05:33;;;;;;;5.13;3.47;;;23.20;99.90;;;;;;5105547;28;20238;-72
2022/08/29 13:08:07;;;;;;;4.43;2.90;;;23.20;99.90;;;;;;5093077;28;20203;-74
2022/08/29 13:10:37;;;;;;;6.35;3.17;;;23.20;99.90;;;;;;5092811;28;20297;-73